Terminal Aerodrome Forecast
Issued by NWS

Home | Current Version | Previous Version | Text Only | Print | Product List | Glossary On
Versions: 1 2 3 4 5 6 7 8 9 10 11 12 13 14 15 16 17 18 19 20
121
FTUS41 KPBZ 192332
TAFLBE
TAF
KLBE 192332Z 2000/2024 14006KT P6SM BKN040
     FM200200 22003KT P6SM SCT050
     FM200700 00000KT 5SM BR SKC
     FM200900 00000KT 1SM BR SCT003
     FM201300 00000KT 3SM BR SCT003
     FM201400 VRB03KT P6SM SCT250=

USA.gov is the U.S. government's official web portal to all federal, state and local government web resources and services.